< < Back
Terminal Aerodrome Forecast


Current Version              Previous Versions:   1  2  3  4  5  6  7  8  9  

Terminal Aerodrome Forecast

359
FTUS42 KCAE 192300
TAFCAE
TAF
KCAE 192339Z 2000/2024 02010G20KT 6SM -RA BR SCT007 OVC010
      TEMPO 2000/2003 3SM -RA BR
     FM200300 01015G23KT 3SM -DZ BR OVC007
     FM201300 04016G22KT P6SM OVC020
     FM202000 02018G25KT P6SM BKN050=

Latest METAR

503
SAUS80 KWBC 200100
MTRCAE
METAR KCAE 200056Z 02007KT 10SM BKN012 BKN017 OVC028 13/11 A3012 RMK AO2
SLP200 T01280106


USA.gov is the U.S. government's official web portal to all federal, state and local government web resources and services.